sensor_id;sensor_type;location;lat;lon;timestamp;P1;durP1;ratioP1;P2;durP2;ratioP2
16063;SDS011;8136;53.172;8.256;2023-08-30T00:00:24;5.50;;;4.70;;
16063;SDS011;8136;53.172;8.256;2023-08-30T00:02:51;6.40;;;4.97;;
16063;SDS011;8136;53.172;8.256;2023-08-30T00:05:18;5.17;;;4.60;;
16063;SDS011;8136;53.172;8.256;2023-08-30T00:07:44;7.27;;;5.07;;
16063;SDS011;8136;53.172;8.256;2023-08-30T00:10:11;4.67;;;4.00;;
16063;SDS011;8136;53.172;8.256;2023-08-30T00:12:38;9.10;;;5.23;;
16063;SDS011;8136;53.172;8.256;2023-08-30T00:15:07;6.13;;;4.80;;
16063;SDS011;8136;53.172;8.256;2023-08-30T00:17:34;7.83;;;4.87;;
16063;SDS011;8136;53.172;8.256;2023-08-30T00:20:01;5.40;;;4.40;;
16063;SDS011;8136;53.172;8.256;2023-08-30T00:22:28;6.87;;;5.10;;
16063;SDS011;8136;53.172;8.256;2023-08-30T00:24:56;5.87;;;4.80;;
16063;SDS011;8136;53.172;8.256;2023-08-30T00:27:22;7.67;;;5.30;;
16063;SDS011;8136;53.172;8.256;2023-08-30T00:29:49;8.20;;;4.70;;
16063;SDS011;8136;53.172;8.256;2023-08-30T00:32:17;5.37;;;4.30;;
16063;SDS011;8136;53.172;8.256;2023-08-30T00:34:44;5.23;;;4.03;;
16063;SDS011;8136;53.172;8.256;2023-08-30T00:37:11;5.50;;;4.10;;
16063;SDS011;8136;53.172;8.256;2023-08-30T00:39:38;6.43;;;4.10;;
16063;SDS011;8136;53.172;8.256;2023-08-30T00:42:05;10.33;;;3.97;;
16063;SDS011;8136;53.172;8.256;2023-08-30T00:44:32;5.20;;;3.77;;
16063;SDS011;8136;53.172;8.256;2023-08-30T00:46:59;4.77;;;3.80;;
16063;SDS011;8136;53.172;8.256;2023-08-30T00:49:29;4.97;;;4.33;;
16063;SDS011;8136;53.172;8.256;2023-08-30T00:51:57;6.33;;;4.50;;
16063;SDS011;8136;53.172;8.256;2023-08-30T00:54:25;6.50;;;4.43;;
16063;SDS011;8136;53.172;8.256;2023-08-30T00:56:52;7.30;;;3.93;;
16063;SDS011;8136;53.172;8.256;2023-08-30T00:59:20;4.30;;;3.63;;
16063;SDS011;8136;53.172;8.256;2023-08-30T01:01:48;4.60;;;3.80;;
16063;SDS011;8136;53.172;8.256;2023-08-30T01:04:15;4.33;;;3.70;;
16063;SDS011;8136;53.172;8.256;2023-08-30T01:06:44;5.70;;;4.10;;
16063;SDS011;8136;53.172;8.256;2023-08-30T01:09:11;5.43;;;3.60;;
16063;SDS011;8136;53.172;8.256;2023-08-30T01:11:40;4.87;;;3.40;;
16063;SDS011;8136;53.172;8.256;2023-08-30T01:14:12;5.00;;;3.80;;
16063;SDS011;8136;53.172;8.256;2023-08-30T01:16:41;4.50;;;3.40;;
16063;SDS011;8136;53.172;8.256;2023-08-30T01:19:13;6.53;;;4.17;;
16063;SDS011;8136;53.172;8.256;2023-08-30T01:22:02;5.23;;;4.00;;
16063;SDS011;8136;53.172;8.256;2023-08-30T01:24:40;4.00;;;3.60;;
16063;SDS011;8136;53.172;8.256;2023-08-30T01:27:12;3.73;;;3.43;;
16063;SDS011;8136;53.172;8.256;2023-08-30T01:29:43;4.53;;;3.53;;
16063;SDS011;8136;53.172;8.256;2023-08-30T01:32:12;4.97;;;3.80;;
16063;SDS011;8136;53.172;8.256;2023-08-30T01:34:39;4.20;;;3.63;;
16063;SDS011;8136;53.172;8.256;2023-08-30T01:37:07;4.53;;;4.07;;
16063;SDS011;8136;53.172;8.256;2023-08-30T01:39:34;4.53;;;3.50;;
16063;SDS011;8136;53.172;8.256;2023-08-30T01:42:02;5.07;;;3.67;;
16063;SDS011;8136;53.172;8.256;2023-08-30T01:44:32;4.73;;;4.17;;
16063;SDS011;8136;53.172;8.256;2023-08-30T01:47:00;4.20;;;3.23;;
16063;SDS011;8136;53.172;8.256;2023-08-30T01:49:29;4.17;;;3.43;;
16063;SDS011;8136;53.172;8.256;2023-08-30T01:51:57;5.20;;;3.17;;
16063;SDS011;8136;53.172;8.256;2023-08-30T01:54:24;4.20;;;3.23;;
16063;SDS011;8136;53.172;8.256;2023-08-30T01:56:53;4.27;;;3.67;;
16063;SDS011;8136;53.172;8.256;2023-08-30T01:59:20;5.00;;;3.60;;
16063;SDS011;8136;53.172;8.256;2023-08-30T02:01:48;3.83;;;3.03;;
16063;SDS011;8136;53.172;8.256;2023-08-30T02:04:15;3.97;;;3.00;;
16063;SDS011;8136;53.172;8.256;2023-08-30T02:06:42;4.03;;;3.43;;
16063;SDS011;8136;53.172;8.256;2023-08-30T02:09:17;3.97;;;3.20;;
16063;SDS011;8136;53.172;8.256;2023-08-30T02:11:47;4.33;;;3.27;;
16063;SDS011;8136;53.172;8.256;2023-08-30T02:14:17;4.17;;;3.30;;
16063;SDS011;8136;53.172;8.256;2023-08-30T02:16:46;7.87;;;4.07;;
16063;SDS011;8136;53.172;8.256;2023-08-30T02:19:15;5.37;;;3.80;;
16063;SDS011;8136;53.172;8.256;2023-08-30T02:21:45;5.17;;;3.80;;
16063;SDS011;8136;53.172;8.256;2023-08-30T02:24:12;4.33;;;3.93;;
16063;SDS011;8136;53.172;8.256;2023-08-30T02:26:39;5.67;;;3.60;;
16063;SDS011;8136;53.172;8.256;2023-08-30T02:29:06;5.83;;;4.10;;
16063;SDS011;8136;53.172;8.256;2023-08-30T02:31:34;4.43;;;3.57;;
16063;SDS011;8136;53.172;8.256;2023-08-30T02:34:03;5.60;;;4.33;;
16063;SDS011;8136;53.172;8.256;2023-08-30T02:36:29;5.00;;;4.40;;
16063;SDS011;8136;53.172;8.256;2023-08-30T02:38:56;6.57;;;4.27;;
16063;SDS011;8136;53.172;8.256;2023-08-30T02:41:23;6.33;;;4.83;;
16063;SDS011;8136;53.172;8.256;2023-08-30T02:43:50;6.13;;;4.80;;
16063;SDS011;8136;53.172;8.256;2023-08-30T02:46:16;5.87;;;4.90;;
16063;SDS011;8136;53.172;8.256;2023-08-30T02:48:43;5.27;;;4.27;;
16063;SDS011;8136;53.172;8.256;2023-08-30T02:51:11;7.23;;;4.77;;
16063;SDS011;8136;53.172;8.256;2023-08-30T02:53:38;5.83;;;5.23;;
16063;SDS011;8136;53.172;8.256;2023-08-30T02:56:05;7.63;;;5.73;;
16063;SDS011;8136;53.172;8.256;2023-08-30T02:58:32;7.30;;;5.27;;
16063;SDS011;8136;53.172;8.256;2023-08-30T03:00:59;8.03;;;4.93;;
16063;SDS011;8136;53.172;8.256;2023-08-30T03:03:27;5.53;;;5.00;;
16063;SDS011;8136;53.172;8.256;2023-08-30T03:05:54;5.43;;;4.80;;
16063;SDS011;8136;53.172;8.256;2023-08-30T03:08:22;6.37;;;5.70;;
16063;SDS011;8136;53.172;8.256;2023-08-30T03:10:49;6.43;;;4.90;;
16063;SDS011;8136;53.172;8.256;2023-08-30T03:13:16;5.73;;;5.20;;
16063;SDS011;8136;53.172;8.256;2023-08-30T03:15:42;9.00;;;5.67;;
16063;SDS011;8136;53.172;8.256;2023-08-30T03:18:09;6.43;;;5.27;;
16063;SDS011;8136;53.172;8.256;2023-08-30T03:20:36;6.83;;;5.77;;
16063;SDS011;8136;53.172;8.256;2023-08-30T03:23:03;6.10;;;5.23;;
16063;SDS011;8136;53.172;8.256;2023-08-30T03:25:31;6.90;;;5.20;;
16063;SDS011;8136;53.172;8.256;2023-08-30T03:27:58;7.67;;;6.07;;
16063;SDS011;8136;53.172;8.256;2023-08-30T03:30:24;6.53;;;5.77;;
16063;SDS011;8136;53.172;8.256;2023-08-30T03:32:51;8.33;;;5.63;;
16063;SDS011;8136;53.172;8.256;2023-08-30T03:35:18;8.70;;;6.17;;
16063;SDS011;8136;53.172;8.256;2023-08-30T03:37:46;7.87;;;6.07;;
16063;SDS011;8136;53.172;8.256;2023-08-30T03:40:13;7.10;;;6.37;;
16063;SDS011;8136;53.172;8.256;2023-08-30T03:42:41;10.33;;;6.90;;
16063;SDS011;8136;53.172;8.256;2023-08-30T03:45:08;8.13;;;6.30;;
16063;SDS011;8136;53.172;8.256;2023-08-30T03:47:35;7.20;;;6.30;;
16063;SDS011;8136;53.172;8.256;2023-08-30T03:50:02;8.57;;;6.83;;
16063;SDS011;8136;53.172;8.256;2023-08-30T03:52:29;8.53;;;6.77;;
16063;SDS011;8136;53.172;8.256;2023-08-30T03:54:55;7.00;;;5.97;;
16063;SDS011;8136;53.172;8.256;2023-08-30T03:57:22;9.60;;;7.30;;
16063;SDS011;8136;53.172;8.256;2023-08-30T03:59:50;9.77;;;6.90;;
16063;SDS011;8136;53.172;8.256;2023-08-30T04:02:18;9.10;;;6.47;;
16063;SDS011;8136;53.172;8.256;2023-08-30T04:04:46;9.70;;;6.63;;
16063;SDS011;8136;53.172;8.256;2023-08-30T04:07:13;8.90;;;6.90;;
16063;SDS011;8136;53.172;8.256;2023-08-30T04:09:40;10.13;;;6.80;;
16063;SDS011;8136;53.172;8.256;2023-08-30T04:12:07;8.53;;;7.10;;
16063;SDS011;8136;53.172;8.256;2023-08-30T04:14:34;7.97;;;7.00;;
16063;SDS011;8136;53.172;8.256;2023-08-30T04:17:02;8.73;;;6.93;;
16063;SDS011;8136;53.172;8.256;2023-08-30T04:19:29;9.27;;;7.07;;
16063;SDS011;8136;53.172;8.256;2023-08-30T04:21:55;11.07;;;7.10;;
16063;SDS011;8136;53.172;8.256;2023-08-30T04:24:22;7.67;;;6.37;;
16063;SDS011;8136;53.172;8.256;2023-08-30T04:26:49;8.47;;;6.17;;
16063;SDS011;8136;53.172;8.256;2023-08-30T04:29:18;8.13;;;6.90;;
16063;SDS011;8136;53.172;8.256;2023-08-30T04:31:45;9.23;;;6.80;;
16063;SDS011;8136;53.172;8.256;2023-08-30T04:34:13;7.83;;;6.80;;
16063;SDS011;8136;53.172;8.256;2023-08-30T04:36:41;8.77;;;7.27;;
16063;SDS011;8136;53.172;8.256;2023-08-30T04:39:07;9.33;;;7.23;;
16063;SDS011;8136;53.172;8.256;2023-08-30T04:41:35;8.17;;;7.17;;
16063;SDS011;8136;53.172;8.256;2023-08-30T04:44:02;9.10;;;7.20;;
16063;SDS011;8136;53.172;8.256;2023-08-30T04:46:29;8.13;;;6.60;;
16063;SDS011;8136;53.172;8.256;2023-08-30T04:48:56;7.43;;;6.20;;
16063;SDS011;8136;53.172;8.256;2023-08-30T04:51:24;9.17;;;6.50;;
16063;SDS011;8136;53.172;8.256;2023-08-30T04:53:51;9.23;;;7.63;;
16063;SDS011;8136;53.172;8.256;2023-08-30T04:56:18;9.13;;;6.57;;
16063;SDS011;8136;53.172;8.256;2023-08-30T04:58:44;10.70;;;7.30;;
16063;SDS011;8136;53.172;8.256;2023-08-30T05:01:11;7.90;;;6.53;;
16063;SDS011;8136;53.172;8.256;2023-08-30T05:03:39;8.57;;;7.03;;
16063;SDS011;8136;53.172;8.256;2023-08-30T05:06:06;9.77;;;7.07;;
16063;SDS011;8136;53.172;8.256;2023-08-30T05:08:34;7.20;;;6.50;;
16063;SDS011;8136;53.172;8.256;2023-08-30T05:11:01;8.43;;;7.00;;
16063;SDS011;8136;53.172;8.256;2023-08-30T05:13:28;8.23;;;6.80;;
16063;SDS011;8136;53.172;8.256;2023-08-30T05:15:54;7.87;;;6.40;;
16063;SDS011;8136;53.172;8.256;2023-08-30T05:18:21;8.13;;;6.80;;
16063;SDS011;8136;53.172;8.256;2023-08-30T05:20:48;9.43;;;6.77;;
16063;SDS011;8136;53.172;8.256;2023-08-30T05:23:15;8.57;;;6.73;;
16063;SDS011;8136;53.172;8.256;2023-08-30T05:25:43;7.90;;;7.00;;
16063;SDS011;8136;53.172;8.256;2023-08-30T05:28:10;10.10;;;7.43;;
16063;SDS011;8136;53.172;8.256;2023-08-30T05:30:37;8.87;;;7.80;;
16063;SDS011;8136;53.172;8.256;2023-08-30T05:33:06;9.30;;;7.43;;
16063;SDS011;8136;53.172;8.256;2023-08-30T05:35:33;9.57;;;7.67;;
16063;SDS011;8136;53.172;8.256;2023-08-30T05:38:00;12.97;;;8.20;;
16063;SDS011;8136;53.172;8.256;2023-08-30T05:40:26;9.50;;;7.30;;
16063;SDS011;8136;53.172;8.256;2023-08-30T05:42:55;11.93;;;7.70;;
16063;SDS011;8136;53.172;8.256;2023-08-30T05:45:21;10.60;;;8.23;;
16063;SDS011;8136;53.172;8.256;2023-08-30T05:47:48;9.23;;;7.80;;
16063;SDS011;8136;53.172;8.256;2023-08-30T05:50:15;11.70;;;8.23;;
16063;SDS011;8136;53.172;8.256;2023-08-30T05:52:42;8.83;;;7.83;;
16063;SDS011;8136;53.172;8.256;2023-08-30T05:55:09;9.97;;;7.60;;
16063;SDS011;8136;53.172;8.256;2023-08-30T05:57:37;12.30;;;8.70;;
16063;SDS011;8136;53.172;8.256;2023-08-30T06:00:06;9.70;;;7.90;;
16063;SDS011;8136;53.172;8.256;2023-08-30T06:02:33;9.27;;;7.63;;
16063;SDS011;8136;53.172;8.256;2023-08-30T06:05:00;9.67;;;8.03;;
16063;SDS011;8136;53.172;8.256;2023-08-30T06:07:27;10.83;;;9.07;;
16063;SDS011;8136;53.172;8.256;2023-08-30T06:09:54;13.10;;;8.87;;
16063;SDS011;8136;53.172;8.256;2023-08-30T06:12:21;9.00;;;8.03;;
16063;SDS011;8136;53.172;8.256;2023-08-30T06:14:48;10.30;;;8.00;;
16063;SDS011;8136;53.172;8.256;2023-08-30T06:17:18;10.73;;;8.37;;
16063;SDS011;8136;53.172;8.256;2023-08-30T06:19:45;12.87;;;8.10;;
16063;SDS011;8136;53.172;8.256;2023-08-30T06:22:12;9.80;;;8.57;;
16063;SDS011;8136;53.172;8.256;2023-08-30T06:24:39;9.87;;;7.97;;
16063;SDS011;8136;53.172;8.256;2023-08-30T06:27:06;10.77;;;7.97;;
16063;SDS011;8136;53.172;8.256;2023-08-30T06:29:33;9.93;;;7.83;;
16063;SDS011;8136;53.172;8.256;2023-08-30T06:32:07;8.93;;;7.00;;
16063;SDS011;8136;53.172;8.256;2023-08-30T06:34:35;9.77;;;8.10;;
16063;SDS011;8136;53.172;8.256;2023-08-30T06:37:02;10.07;;;7.67;;
16063;SDS011;8136;53.172;8.256;2023-08-30T06:39:32;10.30;;;7.90;;
16063;SDS011;8136;53.172;8.256;2023-08-30T06:42:00;10.20;;;6.83;;
16063;SDS011;8136;53.172;8.256;2023-08-30T06:44:27;11.20;;;7.20;;
16063;SDS011;8136;53.172;8.256;2023-08-30T06:46:54;12.13;;;7.80;;
16063;SDS011;8136;53.172;8.256;2023-08-30T06:49:21;13.80;;;8.37;;
16063;SDS011;8136;53.172;8.256;2023-08-30T06:51:49;12.43;;;8.03;;
16063;SDS011;8136;53.172;8.256;2023-08-30T06:54:16;11.63;;;7.40;;
16063;SDS011;8136;53.172;8.256;2023-08-30T06:56:45;10.57;;;8.27;;
16063;SDS011;8136;53.172;8.256;2023-08-30T06:59:22;12.20;;;8.13;;
16063;SDS011;8136;53.172;8.256;2023-08-30T07:01:49;10.30;;;7.40;;
16063;SDS011;8136;53.172;8.256;2023-08-30T07:04:16;9.67;;;7.27;;
16063;SDS011;8136;53.172;8.256;2023-08-30T07:06:43;11.33;;;8.30;;
16063;SDS011;8136;53.172;8.256;2023-08-30T07:09:11;11.40;;;7.57;;
16063;SDS011;8136;53.172;8.256;2023-08-30T07:11:39;9.30;;;7.10;;
16063;SDS011;8136;53.172;8.256;2023-08-30T07:14:09;9.57;;;6.60;;
16063;SDS011;8136;53.172;8.256;2023-08-30T07:16:36;11.60;;;7.03;;
16063;SDS011;8136;53.172;8.256;2023-08-30T07:19:03;10.77;;;6.57;;
16063;SDS011;8136;53.172;8.256;2023-08-30T07:21:29;9.73;;;7.00;;
16063;SDS011;8136;53.172;8.256;2023-08-30T07:23:56;9.00;;;6.57;;
16063;SDS011;8136;53.172;8.256;2023-08-30T07:26:25;8.13;;;6.30;;
16063;SDS011;8136;53.172;8.256;2023-08-30T07:28:51;9.87;;;6.30;;
16063;SDS011;8136;53.172;8.256;2023-08-30T07:31:18;8.10;;;6.30;;
16063;SDS011;8136;53.172;8.256;2023-08-30T07:33:46;8.37;;;6.73;;
16063;SDS011;8136;53.172;8.256;2023-08-30T07:36:13;8.73;;;6.70;;
16063;SDS011;8136;53.172;8.256;2023-08-30T07:38:40;9.97;;;6.60;;
16063;SDS011;8136;53.172;8.256;2023-08-30T07:41:07;9.17;;;6.97;;
16063;SDS011;8136;53.172;8.256;2023-08-30T07:43:35;9.40;;;6.13;;
16063;SDS011;8136;53.172;8.256;2023-08-30T07:46:01;7.13;;;5.93;;
16063;SDS011;8136;53.172;8.256;2023-08-30T07:48:28;8.13;;;6.13;;
16063;SDS011;8136;53.172;8.256;2023-08-30T07:50:55;8.13;;;6.17;;
16063;SDS011;8136;53.172;8.256;2023-08-30T07:53:22;7.60;;;5.83;;
16063;SDS011;8136;53.172;8.256;2023-08-30T07:55:49;9.47;;;5.67;;
16063;SDS011;8136;53.172;8.256;2023-08-30T07:58:16;6.03;;;5.00;;
16063;SDS011;8136;53.172;8.256;2023-08-30T08:00:45;7.83;;;5.23;;
16063;SDS011;8136;53.172;8.256;2023-08-30T08:03:11;7.67;;;5.47;;
16063;SDS011;8136;53.172;8.256;2023-08-30T08:05:38;10.13;;;5.10;;
16063;SDS011;8136;53.172;8.256;2023-08-30T08:08:07;6.07;;;4.70;;
16063;SDS011;8136;53.172;8.256;2023-08-30T08:10:36;5.23;;;4.57;;
16063;SDS011;8136;53.172;8.256;2023-08-30T08:13:02;6.00;;;4.50;;
16063;SDS011;8136;53.172;8.256;2023-08-30T08:15:30;6.17;;;4.80;;
16063;SDS011;8136;53.172;8.256;2023-08-30T08:17:58;6.40;;;5.00;;
16063;SDS011;8136;53.172;8.256;2023-08-30T08:20:25;6.77;;;5.03;;
16063;SDS011;8136;53.172;8.256;2023-08-30T08:22:52;7.10;;;4.80;;
16063;SDS011;8136;53.172;8.256;2023-08-30T08:25:19;6.77;;;4.67;;
16063;SDS011;8136;53.172;8.256;2023-08-30T08:27:47;7.97;;;5.17;;
16063;SDS011;8136;53.172;8.256;2023-08-30T08:30:14;6.13;;;4.73;;
16063;SDS011;8136;53.172;8.256;2023-08-30T08:32:40;6.93;;;4.57;;
16063;SDS011;8136;53.172;8.256;2023-08-30T08:35:09;9.43;;;5.03;;
16063;SDS011;8136;53.172;8.256;2023-08-30T08:37:36;7.27;;;4.77;;
16063;SDS011;8136;53.172;8.256;2023-08-30T08:40:05;5.37;;;4.50;;
16063;SDS011;8136;53.172;8.256;2023-08-30T08:42:34;8.00;;;5.27;;
16063;SDS011;8136;53.172;8.256;2023-08-30T08:45:02;6.37;;;4.93;;
16063;SDS011;8136;53.172;8.256;2023-08-30T08:47:30;6.27;;;4.87;;
16063;SDS011;8136;53.172;8.256;2023-08-30T08:49:57;7.97;;;5.10;;
16063;SDS011;8136;53.172;8.256;2023-08-30T08:52:26;7.97;;;5.07;;
16063;SDS011;8136;53.172;8.256;2023-08-30T08:54:54;10.77;;;5.27;;
16063;SDS011;8136;53.172;8.256;2023-08-30T08:57:21;6.80;;;5.37;;
16063;SDS011;8136;53.172;8.256;2023-08-30T08:59:48;7.20;;;5.07;;
16063;SDS011;8136;53.172;8.256;2023-08-30T09:02:15;7.90;;;5.57;;
16063;SDS011;8136;53.172;8.256;2023-08-30T09:04:42;7.40;;;4.97;;
16063;SDS011;8136;53.172;8.256;2023-08-30T09:07:09;6.80;;;5.57;;
16063;SDS011;8136;53.172;8.256;2023-08-30T09:09:38;5.97;;;5.10;;
16063;SDS011;8136;53.172;8.256;2023-08-30T09:12:05;9.37;;;6.27;;
16063;SDS011;8136;53.172;8.256;2023-08-30T09:14:32;6.67;;;4.33;;
16063;SDS011;8136;53.172;8.256;2023-08-30T09:16:59;7.87;;;5.03;;
16063;SDS011;8136;53.172;8.256;2023-08-30T09:19:27;7.40;;;4.90;;
16063;SDS011;8136;53.172;8.256;2023-08-30T09:21:54;8.47;;;5.00;;
16063;SDS011;8136;53.172;8.256;2023-08-30T09:24:22;7.57;;;4.70;;
16063;SDS011;8136;53.172;8.256;2023-08-30T09:26:52;7.57;;;4.50;;
16063;SDS011;8136;53.172;8.256;2023-08-30T09:29:20;5.30;;;4.40;;
16063;SDS011;8136;53.172;8.256;2023-08-30T09:31:50;10.07;;;4.57;;
16063;SDS011;8136;53.172;8.256;2023-08-30T09:34:21;7.03;;;4.40;;
16063;SDS011;8136;53.172;8.256;2023-08-30T09:36:48;5.90;;;4.30;;
16063;SDS011;8136;53.172;8.256;2023-08-30T09:39:15;7.00;;;4.57;;
16063;SDS011;8136;53.172;8.256;2023-08-30T09:41:43;5.33;;;4.33;;
16063;SDS011;8136;53.172;8.256;2023-08-30T09:44:13;6.57;;;4.43;;
16063;SDS011;8136;53.172;8.256;2023-08-30T09:46:42;7.70;;;4.70;;
16063;SDS011;8136;53.172;8.256;2023-08-30T09:49:10;8.03;;;4.43;;
16063;SDS011;8136;53.172;8.256;2023-08-30T09:51:38;8.60;;;4.63;;
16063;SDS011;8136;53.172;8.256;2023-08-30T09:54:10;7.70;;;4.97;;
16063;SDS011;8136;53.172;8.256;2023-08-30T09:56:40;8.77;;;4.77;;
16063;SDS011;8136;53.172;8.256;2023-08-30T09:59:08;5.17;;;3.97;;
16063;SDS011;8136;53.172;8.256;2023-08-30T10:01:38;5.23;;;4.20;;
16063;SDS011;8136;53.172;8.256;2023-08-30T10:04:06;6.13;;;4.40;;
16063;SDS011;8136;53.172;8.256;2023-08-30T10:06:34;7.40;;;4.67;;
16063;SDS011;8136;53.172;8.256;2023-08-30T10:09:02;4.17;;;3.73;;
16063;SDS011;8136;53.172;8.256;2023-08-30T10:11:30;5.10;;;3.07;;
16063;SDS011;8136;53.172;8.256;2023-08-30T10:13:59;6.87;;;4.10;;
16063;SDS011;8136;53.172;8.256;2023-08-30T10:16:27;9.07;;;4.63;;
16063;SDS011;8136;53.172;8.256;2023-08-30T10:19:01;6.50;;;4.17;;
16063;SDS011;8136;53.172;8.256;2023-08-30T10:21:31;5.90;;;4.53;;
16063;SDS011;8136;53.172;8.256;2023-08-30T10:23:58;4.80;;;3.83;;
16063;SDS011;8136;53.172;8.256;2023-08-30T10:26:27;7.13;;;4.70;;
16063;SDS011;8136;53.172;8.256;2023-08-30T10:28:57;6.40;;;4.77;;
16063;SDS011;8136;53.172;8.256;2023-08-30T10:31:26;9.90;;;5.07;;
16063;SDS011;8136;53.172;8.256;2023-08-30T10:33:54;8.43;;;5.23;;
16063;SDS011;8136;53.172;8.256;2023-08-30T10:36:23;8.57;;;5.73;;
16063;SDS011;8136;53.172;8.256;2023-08-30T10:38:50;6.33;;;4.57;;
16063;SDS011;8136;53.172;8.256;2023-08-30T10:41:21;9.00;;;5.17;;
16063;SDS011;8136;53.172;8.256;2023-08-30T10:43:49;8.87;;;5.23;;
16063;SDS011;8136;53.172;8.256;2023-08-30T10:46:28;8.27;;;5.40;;
16063;SDS011;8136;53.172;8.256;2023-08-30T10:48:56;10.83;;;6.37;;
16063;SDS011;8136;53.172;8.256;2023-08-30T10:51:36;9.47;;;5.50;;
16063;SDS011;8136;53.172;8.256;2023-08-30T10:54:11;10.60;;;4.47;;
16063;SDS011;8136;53.172;8.256;2023-08-30T10:56:45;8.03;;;5.20;;
16063;SDS011;8136;53.172;8.256;2023-08-30T10:59:16;6.77;;;4.27;;
16063;SDS011;8136;53.172;8.256;2023-08-30T11:01:44;7.73;;;5.00;;
16063;SDS011;8136;53.172;8.256;2023-08-30T11:04:12;8.47;;;4.43;;
16063;SDS011;8136;53.172;8.256;2023-08-30T11:06:42;5.40;;;4.13;;
16063;SDS011;8136;53.172;8.256;2023-08-30T11:09:10;8.03;;;4.80;;
16063;SDS011;8136;53.172;8.256;2023-08-30T11:11:39;7.53;;;5.10;;
16063;SDS011;8136;53.172;8.256;2023-08-30T11:14:06;7.80;;;5.00;;
16063;SDS011;8136;53.172;8.256;2023-08-30T11:16:33;6.50;;;4.93;;
16063;SDS011;8136;53.172;8.256;2023-08-30T11:19:00;10.63;;;5.53;;
16063;SDS011;8136;53.172;8.256;2023-08-30T11:21:28;8.97;;;5.63;;
16063;SDS011;8136;53.172;8.256;2023-08-30T11:23:56;9.47;;;5.73;;
16063;SDS011;8136;53.172;8.256;2023-08-30T11:26:23;8.47;;;5.60;;
16063;SDS011;8136;53.172;8.256;2023-08-30T11:28:50;7.87;;;5.80;;
16063;SDS011;8136;53.172;8.256;2023-08-30T11:31:18;9.33;;;6.20;;
16063;SDS011;8136;53.172;8.256;2023-08-30T11:33:50;6.53;;;5.50;;
16063;SDS011;8136;53.172;8.256;2023-08-30T11:36:18;7.70;;;5.83;;
16063;SDS011;8136;53.172;8.256;2023-08-30T11:38:46;10.00;;;5.53;;
16063;SDS011;8136;53.172;8.256;2023-08-30T11:41:14;7.63;;;5.80;;
16063;SDS011;8136;53.172;8.256;2023-08-30T11:43:41;10.07;;;5.90;;
16063;SDS011;8136;53.172;8.256;2023-08-30T11:46:09;9.73;;;5.47;;
16063;SDS011;8136;53.172;8.256;2023-08-30T11:48:37;8.83;;;5.67;;
16063;SDS011;8136;53.172;8.256;2023-08-30T11:51:04;8.20;;;5.60;;
16063;SDS011;8136;53.172;8.256;2023-08-30T11:53:32;8.37;;;4.80;;
16063;SDS011;8136;53.172;8.256;2023-08-30T11:55:59;7.00;;;5.13;;
16063;SDS011;8136;53.172;8.256;2023-08-30T11:58:27;7.53;;;5.33;;
16063;SDS011;8136;53.172;8.256;2023-08-30T12:00:58;9.77;;;5.90;;
16063;SDS011;8136;53.172;8.256;2023-08-30T12:03:26;7.73;;;5.43;;
16063;SDS011;8136;53.172;8.256;2023-08-30T12:05:53;7.87;;;5.37;;
16063;SDS011;8136;53.172;8.256;2023-08-30T12:08:20;8.80;;;5.77;;
16063;SDS011;8136;53.172;8.256;2023-08-30T12:10:49;8.20;;;4.90;;
16063;SDS011;8136;53.172;8.256;2023-08-30T12:13:20;8.40;;;5.73;;
16063;SDS011;8136;53.172;8.256;2023-08-30T12:15:49;7.57;;;4.97;;
16063;SDS011;8136;53.172;8.256;2023-08-30T12:18:16;10.73;;;6.53;;
16063;SDS011;8136;53.172;8.256;2023-08-30T12:20:52;11.63;;;6.10;;
16063;SDS011;8136;53.172;8.256;2023-08-30T12:23:20;9.33;;;5.73;;
16063;SDS011;8136;53.172;8.256;2023-08-30T12:25:57;12.37;;;6.50;;
16063;SDS011;8136;53.172;8.256;2023-08-30T12:28:25;9.87;;;7.07;;
16063;SDS011;8136;53.172;8.256;2023-08-30T12:30:53;10.57;;;6.73;;
16063;SDS011;8136;53.172;8.256;2023-08-30T12:33:20;11.13;;;7.17;;
16063;SDS011;8136;53.172;8.256;2023-08-30T12:35:47;12.63;;;7.77;;
16063;SDS011;8136;53.172;8.256;2023-08-30T12:38:14;10.37;;;7.30;;
16063;SDS011;8136;53.172;8.256;2023-08-30T12:40:43;8.63;;;6.80;;
16063;SDS011;8136;53.172;8.256;2023-08-30T12:43:10;9.37;;;6.67;;
16063;SDS011;8136;53.172;8.256;2023-08-30T12:45:38;10.47;;;6.87;;
16063;SDS011;8136;53.172;8.256;2023-08-30T12:48:06;9.97;;;6.67;;
16063;SDS011;8136;53.172;8.256;2023-08-30T12:50:34;8.27;;;6.20;;
16063;SDS011;8136;53.172;8.256;2023-08-30T12:53:01;12.17;;;7.27;;
16063;SDS011;8136;53.172;8.256;2023-08-30T12:55:28;8.90;;;6.67;;
16063;SDS011;8136;53.172;8.256;2023-08-30T12:57:55;9.53;;;7.07;;
16063;SDS011;8136;53.172;8.256;2023-08-30T13:00:22;8.73;;;7.30;;
16063;SDS011;8136;53.172;8.256;2023-08-30T13:02:49;11.03;;;7.63;;
16063;SDS011;8136;53.172;8.256;2023-08-30T13:05:17;16.67;;;8.30;;
16063;SDS011;8136;53.172;8.256;2023-08-30T13:07:44;12.03;;;9.37;;
16063;SDS011;8136;53.172;8.256;2023-08-30T13:10:11;12.60;;;8.37;;
16063;SDS011;8136;53.172;8.256;2023-08-30T13:12:38;12.70;;;9.63;;
16063;SDS011;8136;53.172;8.256;2023-08-30T13:15:05;13.97;;;9.63;;
16063;SDS011;8136;53.172;8.256;2023-08-30T13:17:33;12.73;;;9.37;;
16063;SDS011;8136;53.172;8.256;2023-08-30T13:20:00;13.23;;;9.37;;
16063;SDS011;8136;53.172;8.256;2023-08-30T13:22:28;14.50;;;10.23;;
16063;SDS011;8136;53.172;8.256;2023-08-30T13:24:55;12.90;;;9.97;;
16063;SDS011;8136;53.172;8.256;2023-08-30T13:27:22;13.20;;;9.27;;
16063;SDS011;8136;53.172;8.256;2023-08-30T13:29:49;12.37;;;9.80;;
16063;SDS011;8136;53.172;8.256;2023-08-30T13:32:16;16.63;;;11.40;;
16063;SDS011;8136;53.172;8.256;2023-08-30T13:34:43;12.17;;;9.90;;
16063;SDS011;8136;53.172;8.256;2023-08-30T13:37:11;13.97;;;10.90;;
16063;SDS011;8136;53.172;8.256;2023-08-30T13:39:39;16.47;;;11.33;;
16063;SDS011;8136;53.172;8.256;2023-08-30T13:42:06;18.97;;;11.63;;
16063;SDS011;8136;53.172;8.256;2023-08-30T13:44:33;16.23;;;10.80;;
16063;SDS011;8136;53.172;8.256;2023-08-30T13:47:02;17.87;;;11.77;;
16063;SDS011;8136;53.172;8.256;2023-08-30T13:49:29;13.30;;;10.83;;
16063;SDS011;8136;53.172;8.256;2023-08-30T13:51:56;13.03;;;9.77;;
16063;SDS011;8136;53.172;8.256;2023-08-30T13:54:23;15.30;;;11.10;;
16063;SDS011;8136;53.172;8.256;2023-08-30T13:56:51;18.60;;;10.70;;
16063;SDS011;8136;53.172;8.256;2023-08-30T13:59:18;19.40;;;11.40;;
16063;SDS011;8136;53.172;8.256;2023-08-30T14:01:46;17.60;;;10.90;;
16063;SDS011;8136;53.172;8.256;2023-08-30T14:04:13;16.77;;;11.00;;
16063;SDS011;8136;53.172;8.256;2023-08-30T14:06:39;15.73;;;11.77;;
16063;SDS011;8136;53.172;8.256;2023-08-30T14:09:06;14.17;;;10.80;;
16063;SDS011;8136;53.172;8.256;2023-08-30T14:11:33;14.83;;;11.97;;
16063;SDS011;8136;53.172;8.256;2023-08-30T14:14:04;14.63;;;10.93;;
16063;SDS011;8136;53.172;8.256;2023-08-30T14:16:31;16.07;;;12.93;;
16063;SDS011;8136;53.172;8.256;2023-08-30T14:18:57;17.07;;;12.63;;
16063;SDS011;8136;53.172;8.256;2023-08-30T14:21:25;15.17;;;11.97;;
16063;SDS011;8136;53.172;8.256;2023-08-30T14:23:52;16.47;;;12.93;;
16063;SDS011;8136;53.172;8.256;2023-08-30T14:26:19;18.53;;;13.63;;
16063;SDS011;8136;53.172;8.256;2023-08-30T14:28:46;16.60;;;12.60;;
16063;SDS011;8136;53.172;8.256;2023-08-30T14:31:14;21.37;;;13.53;;
16063;SDS011;8136;53.172;8.256;2023-08-30T14:33:42;17.33;;;12.87;;
16063;SDS011;8136;53.172;8.256;2023-08-30T14:36:10;18.20;;;12.63;;
16063;SDS011;8136;53.172;8.256;2023-08-30T14:38:37;13.83;;;11.13;;
16063;SDS011;8136;53.172;8.256;2023-08-30T14:41:05;18.30;;;12.93;;
16063;SDS011;8136;53.172;8.256;2023-08-30T14:43:33;17.77;;;13.13;;
16063;SDS011;8136;53.172;8.256;2023-08-30T14:46:00;16.40;;;12.87;;
16063;SDS011;8136;53.172;8.256;2023-08-30T14:48:28;13.90;;;11.70;;
16063;SDS011;8136;53.172;8.256;2023-08-30T14:50:56;17.30;;;11.70;;
16063;SDS011;8136;53.172;8.256;2023-08-30T14:53:23;13.93;;;11.60;;
16063;SDS011;8136;53.172;8.256;2023-08-30T14:55:50;15.73;;;10.37;;
16063;SDS011;8136;53.172;8.256;2023-08-30T14:58:17;13.17;;;9.50;;